Time;durP1;ratioP1;P1;durP2;ratioP2;P2;SDS_P1;SDS_P2;PMS_P1;PMS_P2;Temp;Humidity;BMP_temperature;BMP_pressure;BME280_temperature;BME280_humidity;BME280_pressure;Samples;Min_cycle;Max_cycle;Signal;HPM_P1;HPM_P2
2022/08/21 00:02:17;;;;;;;12.13;5.78;;;;;;;18.84;94.43;97649.12;1764889;79;21223;-61
2022/08/21 00:04:44;;;;;;;8.08;5.28;;;;;;;18.84;94.50;97656.66;1757867;79;21408;-62
2022/08/21 00:07:10;;;;;;;10.60;6.28;;;;;;;18.83;94.53;97657.83;1742457;81;21515;-62
2022/08/21 00:09:37;;;;;;;10.18;5.47;;;;;;;18.83;94.56;97653.75;1748982;81;21402;-63
2022/08/21 00:12:04;;;;;;;11.85;5.62;;;;;;;18.83;94.63;97651.04;1750705;81;20990;-62
2022/08/21 00:14:31;;;;;;;6.62;5.17;;;;;;;18.84;94.61;97650.48;1745002;80;22049;-62
2022/08/21 00:16:58;;;;;;;7.95;5.97;;;;;;;18.82;94.69;97653.52;1755459;80;20897;-61
2022/08/21 00:19:25;;;;;;;9.15;4.92;;;;;;;18.81;94.80;97660.11;1753655;81;21409;-62
2022/08/21 00:21:53;;;;;;;9.45;5.55;;;;;;;18.82;94.98;97654.09;1745258;80;21005;-62
2022/08/21 00:24:20;;;;;;;8.13;5.37;;;;;;;18.81;95.06;97658.75;1744444;79;21073;-62
2022/08/21 00:26:47;;;;;;;9.23;4.97;;;;;;;18.80;95.12;97655.80;1738311;81;21107;-62
2022/08/21 00:29:14;;;;;;;11.60;6.25;;;;;;;18.79;95.28;97652.89;1737785;81;20886;-62
2022/08/21 00:31:41;;;;;;;6.78;5.22;;;;;;;18.81;95.41;97656.03;1742586;80;21595;-61
2022/08/21 00:34:08;;;;;;;9.55;5.00;;;;;;;18.81;95.48;97647.89;1747507;81;21002;-62
2022/08/21 00:36:35;;;;;;;8.60;5.60;;;;;;;18.84;95.61;97649.88;1747023;79;20948;-62
2022/08/21 00:39:04;;;;;;;8.45;5.55;;;;;;;18.90;95.61;97647.14;1743466;80;21536;-62
2022/08/21 00:41:31;;;;;;;6.87;5.22;;;;;;;18.93;95.58;97649.16;1766570;81;20846;-62
2022/08/21 00:43:58;;;;;;;6.65;5.22;;;;;;;18.95;95.55;97648.23;1741384;81;20990;-62
2022/08/21 00:46:24;;;;;;;7.90;5.58;;;;;;;18.96;95.52;97644.95;1756143;80;20885;-63
2022/08/21 00:48:51;;;;;;;8.88;5.12;;;;;;;19.01;95.50;97638.66;1731870;82;20962;-62
2022/08/21 00:51:25;;;;;;;8.48;5.30;;;;;;;19.07;95.32;97642.70;1735389;82;21243;-61
2022/08/21 00:53:56;;;;;;;6.58;5.58;;;;;;;19.09;95.19;97641.77;1732083;82;21069;-62
2022/08/21 00:56:22;;;;;;;8.30;4.95;;;;;;;19.12;95.11;97643.75;1732605;82;20911;-61
2022/08/21 00:58:55;;;;;;;10.38;5.47;;;;;;;19.13;94.91;97637.20;1736384;82;20950;-61
2022/08/21 01:01:22;;;;;;;9.05;5.28;;;;;;;19.13;94.80;97637.20;1730721;82;20899;-63
2022/08/21 01:03:49;;;;;;;7.92;5.28;;;;;;;19.14;94.73;97629.84;1701851;82;21049;-63
2022/08/21 01:06:15;;;;;;;10.45;5.78;;;;;;;19.15;94.71;97628.69;1697694;84;20971;-62
2022/08/21 01:08:42;;;;;;;15.55;5.67;;;;;;;19.17;94.64;97624.28;1736133;82;21489;-62
2022/08/21 01:11:08;;;;;;;8.95;5.62;;;;;;;19.16;94.64;97629.48;1721295;82;21464;-62
2022/08/21 01:13:37;;;;;;;9.70;5.75;;;;;;;19.15;94.64;97629.28;1732548;82;20902;-62
2022/08/21 01:16:07;;;;;;;8.75;5.33;;;;;;;19.18;94.67;97622.56;1730899;82;21278;-62
2022/08/21 01:18:34;;;;;;;11.22;5.17;;;;;;;19.21;94.51;97615.64;1753659;81;21377;-61
2022/08/21 01:21:19;;;;;;;9.88;5.53;;;;;;;19.19;94.51;97615.20;1750293;81;21169;-62
2022/08/21 01:23:49;;;;;;;6.25;5.28;;;;;;;19.19;94.48;97616.56;1764258;80;20980;-63
2022/08/21 01:26:18;;;;;;;7.75;5.65;;;;;;;19.18;94.50;97615.77;1753282;81;21113;-62
2022/08/21 01:28:56;;;;;;;8.60;5.65;;;;;;;19.20;94.42;97614.05;1749288;79;21097;-62
2022/08/21 01:31:25;;;;;;;9.33;5.45;;;;;;;19.20;94.47;97614.84;1763347;81;20985;-61
2022/08/21 01:33:52;;;;;;;8.00;5.37;;;;;;;19.23;94.40;97616.06;1741343;79;20950;-62
2022/08/21 01:36:18;;;;;;;9.30;5.60;;;;;;;19.25;94.36;97615.92;1756632;79;20934;-61
2022/08/21 01:38:45;;;;;;;6.85;5.70;;;;;;;19.23;94.36;97613.34;1746262;81;21135;-62
2022/08/21 01:41:11;;;;;;;9.03;5.95;;;;;;;19.23;94.35;97614.14;1768579;81;21222;-62
2022/08/21 01:43:38;;;;;;;8.70;5.60;;;;;;;19.24;94.32;97608.15;1765314;81;21060;-62
2022/08/21 01:46:04;;;;;;;6.40;5.28;;;;;;;19.23;94.31;97606.56;1749611;81;20888;-62
2022/08/21 01:48:31;;;;;;;8.58;5.20;;;;;;;19.20;94.36;97603.98;1746269;81;20922;-62
2022/08/21 01:50:58;;;;;;;9.80;5.85;;;;;;;19.19;94.42;97594.28;1751682;79;20930;-61
2022/08/21 01:53:25;;;;;;;10.25;5.95;;;;;;;19.19;94.50;97594.84;1755370;80;21783;-61
2022/08/21 01:55:51;;;;;;;8.60;5.60;;;;;;;19.21;94.50;97593.92;1737522;81;20847;-62
2022/08/21 01:58:18;;;;;;;11.40;5.58;;;;;;;19.20;94.48;97592.33;1749315;81;20925;-62
2022/08/21 02:00:44;;;;;;;8.40;5.22;;;;;;;19.19;94.44;97592.13;1742800;81;20968;-62
2022/08/21 02:03:11;;;;;;;8.43;5.42;;;;;;;19.20;94.42;97592.33;1738164;81;21050;-61
2022/08/21 02:05:38;;;;;;;12.18;5.97;;;;;;;19.20;94.42;97593.69;1740903;81;21234;-61
2022/08/21 02:08:05;;;;;;;11.18;5.70;;;;;;;19.21;94.48;97592.56;1748295;81;21367;-62
2022/08/21 02:10:32;;;;;;;9.05;5.67;;;;;;;19.21;94.48;97595.28;1760350;81;20984;-61
2022/08/21 02:13:00;;;;;;;8.85;5.95;;;;;;;19.23;94.40;97588.91;1757287;81;20886;-61
2022/08/21 02:15:28;;;;;;;7.83;5.70;;;;;;;19.21;94.35;97585.20;1744980;81;21024;-61
2022/08/21 02:17:59;;;;;;;7.53;5.60;;;;;;;19.19;94.32;97585.34;1748750;81;21260;-62
2022/08/21 02:20:31;;;;;;;13.10;5.90;;;;;;;19.17;94.43;97590.34;1749696;80;21064;-61
2022/08/21 02:22:57;;;;;;;10.08;6.10;;;;;;;19.16;94.53;97588.20;1756486;81;20947;-61
2022/08/21 02:25:25;;;;;;;9.45;5.90;;;;;;;19.17;94.61;97590.34;1750917;81;20961;-62
2022/08/21 02:27:52;;;;;;;10.65;5.97;;;;;;;19.17;94.59;97582.20;1742936;81;21001;-62
2022/08/21 02:30:24;;;;;;;7.90;5.60;;;;;;;19.16;94.57;97586.05;1752579;81;21113;-62
2022/08/21 02:32:50;;;;;;;8.70;5.28;;;;;;;19.15;94.60;97587.20;1755397;80;21029;-61
2022/08/21 02:35:18;;;;;;;11.55;5.87;;;;;;;19.11;94.74;97587.12;1746076;81;20867;-62
2022/08/21 02:38:00;;;;;;;11.80;6.03;;;;;;;19.09;94.90;97580.70;1746251;81;20950;-62
2022/08/21 02:40:31;;;;;;;8.35;5.55;;;;;;;19.09;94.95;97585.33;1741839;81;20929;-62
2022/08/21 02:43:01;;;;;;;11.40;5.83;;;;;;;19.08;95.05;97583.18;1750368;81;21063;-61
2022/08/21 02:45:28;;;;;;;6.70;5.70;;;;;;;19.09;95.03;97584.77;1746258;81;21067;-60
2022/08/21 02:47:59;;;;;;;9.28;5.40;;;;;;;19.08;95.11;97585.89;1750262;81;21025;-62
2022/08/21 02:50:29;;;;;;;9.00;5.55;;;;;;;19.09;95.16;97580.70;1751876;81;20952;-62
2022/08/21 02:52:55;;;;;;;9.20;5.47;;;;;;;19.07;95.17;97581.62;1746306;81;20930;-61
2022/08/21 02:55:23;;;;;;;9.78;6.08;;;;;;;19.08;95.26;97582.39;1758423;80;21239;-61
2022/08/21 02:57:50;;;;;;;9.08;5.83;;;;;;;19.09;95.21;97579.34;1753641;81;20950;-61
2022/08/21 03:00:17;;;;;;;8.73;5.20;;;;;;;19.07;95.21;97576.20;1738822;81;20902;-62
2022/08/21 03:02:46;;;;;;;8.93;5.75;;;;;;;19.08;95.23;97572.89;1749931;80;20931;-62
2022/08/21 03:05:14;;;;;;;8.10;6.37;;;;;;;19.10;95.15;97574.70;1749103;80;21098;-61
2022/08/21 03:07:42;;;;;;;7.30;5.65;;;;;;;19.07;95.08;97576.20;1755029;81;21080;-61
2022/08/21 03:10:09;;;;;;;8.53;5.72;;;;;;;19.05;95.11;97575.73;1744629;81;20926;-61
2022/08/21 03:12:36;;;;;;;8.60;5.60;;;;;;;19.05;95.14;97576.33;1752847;81;20898;-61
2022/08/21 03:15:06;;;;;;;8.15;5.35;;;;;;;19.03;95.09;97572.59;1754737;81;21480;-62
2022/08/21 03:17:33;;;;;;;7.22;5.53;;;;;;;19.01;95.24;97572.17;1754123;80;20990;-62
2022/08/21 03:20:00;;;;;;;8.05;5.72;;;;;;;19.01;95.31;97576.80;1752123;79;21235;-61
2022/08/21 03:22:27;;;;;;;10.58;5.92;;;;;;;18.98;95.41;97575.59;1754278;81;20934;-61
2022/08/21 03:24:53;;;;;;;9.65;6.05;;;;;;;18.96;95.59;97562.94;1740449;81;20950;-62
2022/08/21 03:27:20;;;;;;;7.67;5.62;;;;;;;18.99;95.59;97576.38;1760081;81;20996;-61
2022/08/21 03:29:46;;;;;;;7.28;5.65;;;;;;;18.97;95.64;97579.45;1750511;80;20862;-61
2022/08/21 03:32:13;;;;;;;6.72;5.60;;;;;;;19.01;95.68;97580.31;1756639;81;22846;-62
2022/08/21 03:34:39;;;;;;;8.88;5.95;;;;;;;19.02;95.59;97575.11;1753117;81;20943;-61
2022/08/21 03:37:06;;;;;;;10.63;5.65;;;;;;;19.03;95.50;97576.67;1749901;81;21019;-61
2022/08/21 03:39:34;;;;;;;6.92;5.28;;;;;;;19.02;95.52;97582.47;1765501;81;20893;-62
2022/08/21 03:42:00;;;;;;;6.28;5.25;;;;;;;19.02;95.53;97591.40;1756496;81;20990;-61
2022/08/21 03:44:32;;;;;;;8.88;5.60;;;;;;;19.03;95.50;97590.23;1754430;81;21115;-61
2022/08/21 03:46:58;;;;;;;8.28;5.67;;;;;;;19.06;95.42;97586.83;1741201;81;20928;-62
2022/08/21 03:49:25;;;;;;;8.25;5.65;;;;;;;19.08;95.38;97583.18;1763450;80;20878;-61
2022/08/21 03:51:51;;;;;;;8.03;5.53;;;;;;;19.09;95.31;97587.48;1748633;81;21467;-62
2022/08/21 03:54:18;;;;;;;9.75;5.60;;;;;;;19.10;95.35;97589.03;1761040;81;20896;-61
2022/08/21 03:56:45;;;;;;;9.63;5.60;;;;;;;19.10;95.17;97586.32;1746240;81;21039;-62
2022/08/21 03:59:11;;;;;;;7.53;5.42;;;;;;;19.07;95.26;97582.98;1760558;81;20983;-62
2022/08/21 04:01:38;;;;;;;7.10;5.08;;;;;;;19.08;95.30;97580.47;1741502;81;20934;-62
2022/08/21 04:04:05;;;;;;;7.70;5.60;;;;;;;19.09;95.43;97582.05;1739698;81;21426;-62
2022/08/21 04:06:32;;;;;;;6.55;5.78;;;;;;;19.12;95.52;97580.56;1762824;80;20979;-62
2022/08/21 04:08:58;;;;;;;7.92;5.62;;;;;;;19.15;95.55;97585.85;1769012;81;21924;-62
2022/08/21 04:11:25;;;;;;;7.85;5.75;;;;;;;19.18;95.55;97587.83;1744358;81;20931;-61
2022/08/21 04:13:53;;;;;;;8.83;5.20;;;;;;;19.24;95.46;97587.78;1750480;81;20933;-62
2022/08/21 04:16:19;;;;;;;8.65;5.10;;;;;;;19.29;95.39;97586.16;1751806;81;21469;-62
2022/08/21 04:18:46;;;;;;;7.35;5.20;;;;;;;19.31;95.23;97587.94;1742791;80;21119;-62
2022/08/21 04:21:12;;;;;;;7.85;5.58;;;;;;;19.34;95.12;97582.56;1759891;81;21684;-62
2022/08/21 04:23:39;;;;;;;7.45;5.83;;;;;;;19.38;95.00;97580.76;1762841;81;21105;-61
2022/08/21 04:26:06;;;;;;;9.63;5.90;;;;;;;19.42;94.90;97584.89;1759549;80;21018;-62
2022/08/21 04:28:33;;;;;;;9.30;5.47;;;;;;;19.45;94.68;97582.83;1756077;81;20991;-62
2022/08/21 04:31:00;;;;;;;10.98;5.80;;;;;;;19.46;94.61;97587.09;1752995;79;21039;-61
2022/08/21 04:33:26;;;;;;;9.25;5.17;;;;;;;19.48;94.58;97582.09;1750462;79;21079;-62
2022/08/21 04:35:53;;;;;;;8.73;5.53;;;;;;;19.49;94.41;97582.31;1757020;81;20929;-60
2022/08/21 04:38:20;;;;;;;8.00;5.50;;;;;;;19.52;94.38;97589.20;1764954;80;20905;-61
2022/08/21 04:40:48;;;;;;;7.60;5.42;;;;;;;19.56;94.24;97587.33;1736108;82;20969;-62
2022/08/21 04:43:14;;;;;;;8.73;5.25;;;;;;;19.60;94.14;97585.45;1742778;80;21508;-60
2022/08/21 04:45:44;;;;;;;7.83;5.40;;;;;;;19.64;94.03;97578.75;1748532;81;21432;-62
2022/08/21 04:48:13;;;;;;;7.33;5.22;;;;;;;19.70;93.79;97586.81;1746494;81;20970;-62
2022/08/21 04:51:08;;;;;;;6.45;5.37;;;;;;;19.74;93.59;97582.23;1743601;80;20891;-62
2022/08/21 04:53:49;;;;;;;9.55;6.03;;;;;;;19.81;93.38;97585.08;1739929;82;21489;-61
2022/08/21 04:56:31;;;;;;;10.70;5.60;;;;;;;19.91;93.00;97593.22;1729801;81;21019;-62
2022/08/21 04:59:00;;;;;;;8.90;5.00;;;;;;;19.98;92.67;97592.78;1739628;81;21096;-62
2022/08/21 05:01:27;;;;;;;5.95;5.03;;;;;;;20.06;92.37;97605.38;1744636;81;21021;-62
2022/08/21 05:03:56;;;;;;;9.13;5.72;;;;;;;20.12;92.23;97599.84;1753395;81;21572;-62
2022/08/21 05:06:23;;;;;;;10.15;5.33;;;;;;;20.16;91.75;97598.55;1756052;80;20940;-61
2022/08/21 05:08:52;;;;;;;11.03;5.67;;;;;;;20.18;91.50;97593.53;1745143;80;20978;-62
2022/08/21 05:11:19;;;;;;;11.68;5.40;;;;;;;20.19;91.40;97592.37;1741790;81;21019;-62
2022/08/21 05:13:46;;;;;;;8.18;5.67;;;;;;;20.24;91.24;97592.90;1741947;81;21417;-62
2022/08/21 05:16:13;;;;;;;7.22;5.50;;;;;;;20.26;91.13;97596.03;1751746;80;21436;-62
2022/08/21 05:18:39;;;;;;;6.50;5.15;;;;;;;20.27;90.93;97597.63;1742815;81;21143;-62
2022/08/21 05:21:06;;;;;;;6.90;4.97;;;;;;;20.29;90.87;97600.76;1746312;81;21036;-62
2022/08/21 05:23:33;;;;;;;7.05;5.05;;;;;;;20.31;90.62;97603.11;1732047;82;21116;-63
2022/08/21 05:26:00;;;;;;;5.87;4.80;;;;;;;20.29;90.52;97606.20;1764896;81;20897;-63
2022/08/21 05:28:27;;;;;;;8.38;4.92;;;;;;;20.31;90.53;97611.27;1740030;80;21126;-63
2022/08/21 05:30:54;;;;;;;8.03;4.90;;;;;;;20.32;90.50;97615.00;1749719;81;37819;-63
2022/08/21 05:33:21;;;;;;;7.42;5.17;;;;;;;20.36;90.38;97620.48;1760130;81;21016;-61
2022/08/21 05:35:51;;;;;;;6.00;4.90;;;;;;;20.39;90.13;97617.05;1756370;80;21903;-63
2022/08/21 05:38:19;;;;;;;6.72;4.72;;;;;;;20.38;90.06;97616.26;1755326;80;20913;-63
2022/08/21 05:40:46;;;;;;;5.28;4.33;;;;;;;20.41;90.04;97618.83;1751229;81;20950;-62
2022/08/21 05:43:12;;;;;;;7.25;4.47;;;;;;;20.44;89.87;97620.83;1747331;81;20996;-63
2022/08/21 05:45:39;;;;;;;5.95;4.60;;;;;;;20.48;89.72;97616.23;1744175;79;20934;-62
2022/08/21 05:48:08;;;;;;;8.00;5.47;;;;;;;20.56;89.44;97615.78;1757323;81;21134;-63
2022/08/21 05:50:37;;;;;;;6.97;4.92;;;;;;;20.61;89.03;97609.44;1742737;81;20909;-61
2022/08/21 05:53:05;;;;;;;5.58;4.83;;;;;;;20.65;88.74;97608.15;1750158;81;21175;-62
2022/08/21 05:55:32;;;;;;;8.60;4.80;;;;;;;20.68;88.44;97606.06;1745151;81;21037;-62
2022/08/21 05:57:59;;;;;;;7.83;5.15;;;;;;;20.75;88.09;97607.54;1751060;81;20968;-62
2022/08/21 06:00:25;;;;;;;8.40;5.12;;;;;;;20.83;87.74;97603.19;1743007;80;21034;-62
2022/08/21 06:02:52;;;;;;;6.30;5.28;;;;;;;20.93;87.38;97609.38;1754564;81;20903;-62
2022/08/21 06:05:18;;;;;;;7.35;5.35;;;;;;;20.97;86.93;97610.77;1755012;79;21002;-62
2022/08/21 06:07:45;;;;;;;9.53;5.10;;;;;;;20.97;86.64;97605.33;1743427;81;20942;-61
2022/08/21 06:10:12;;;;;;;12.33;4.95;;;;;;;20.99;86.44;97605.74;1744861;81;20911;-61
2022/08/21 06:12:39;;;;;;;6.83;4.72;;;;;;;21.04;86.32;97612.23;1751431;80;21280;-62
2022/08/21 06:15:07;;;;;;;8.40;5.10;;;;;;;21.08;86.06;97611.73;1750785;81;21430;-62
2022/08/21 06:17:33;;;;;;;7.72;4.92;;;;;;;21.12;85.96;97613.95;1747145;81;20954;-61
2022/08/21 06:20:00;;;;;;;6.47;5.62;;;;;;;21.09;85.57;97616.83;1747671;80;20949;-62
2022/08/21 06:22:27;;;;;;;7.95;5.40;;;;;;;21.05;85.50;97612.49;1751589;81;20898;-61
2022/08/21 06:24:53;;;;;;;8.20;5.35;;;;;;;21.03;85.43;97614.77;1750322;80;21523;-62
2022/08/21 06:27:20;;;;;;;9.20;4.80;;;;;;;21.03;85.49;97617.49;1762004;79;20901;-62
2022/08/21 06:29:46;;;;;;;7.97;5.00;;;;;;;21.03;85.60;97613.41;1756588;81;20870;-63
2022/08/21 06:32:13;;;;;;;10.00;5.42;;;;;;;21.04;85.71;97615.78;1753692;80;21074;-62
2022/08/21 06:34:40;;;;;;;8.78;5.22;;;;;;;21.05;85.56;97615.22;1762916;81;20992;-62
2022/08/21 06:37:07;;;;;;;7.33;4.95;;;;;;;21.05;85.44;97615.22;1746443;79;21271;-62
2022/08/21 06:39:34;;;;;;;7.65;4.85;;;;;;;21.06;85.17;97618.13;1743722;80;21079;-62
2022/08/21 06:44:34;;;;;;;8.88;4.70;;;;;;;21.04;84.96;97614.96;1755750;79;20881;-61
2022/08/21 06:47:01;;;;;;;8.00;5.08;;;;;;;21.04;84.96;97617.14;1746556;81;21044;-63
2022/08/21 06:49:27;;;;;;;5.95;4.97;;;;;;;21.06;84.80;97616.77;1760405;81;21218;-62
2022/08/21 06:51:54;;;;;;;5.40;4.42;;;;;;;21.08;84.91;97611.73;1756864;79;21012;-62
2022/08/21 06:54:20;;;;;;;6.28;4.40;;;;;;;21.12;84.74;97619.41;1757016;79;20838;-62
2022/08/21 06:56:46;;;;;;;8.13;3.92;;;;;;;21.16;84.24;97610.70;1742821;81;20903;-63
2022/08/21 06:59:13;;;;;;;8.10;4.37;;;;;;;21.21;83.61;97613.11;1765111;79;21526;-63
2022/08/21 07:01:40;;;;;;;7.70;4.20;;;;;;;21.26;83.08;97605.98;1752833;80;21123;-63
2022/08/21 07:04:07;;;;;;;6.62;4.40;;;;;;;21.33;82.68;97603.92;1753635;81;20968;-64
2022/08/21 07:06:34;;;;;;;6.20;3.80;;;;;;;21.38;82.23;97604.39;1753033;81;20889;-63
2022/08/21 07:09:01;;;;;;;7.85;4.20;;;;;;;21.41;81.54;97606.96;1765080;81;20945;-63
2022/08/21 07:11:29;;;;;;;5.75;3.67;;;;;;;21.40;80.77;97610.25;1756830;80;21472;-63
2022/08/21 07:13:56;;;;;;;6.25;4.00;;;;;;;21.41;80.38;97611.80;1768752;81;22066;-62
2022/08/21 07:16:23;;;;;;;7.45;3.60;;;;;;;21.43;80.34;97613.58;1747246;81;21377;-61
2022/08/21 07:18:49;;;;;;;8.33;4.37;;;;;;;21.47;80.42;97610.34;1735241;81;20946;-63
2022/08/21 07:21:16;;;;;;;4.58;3.87;;;;;;;21.51;80.13;97611.16;1755063;81;20938;-61
2022/08/21 07:23:50;;;;;;;7.15;4.10;;;;;;;21.49;80.08;97608.03;1733144;82;21090;-61
2022/08/21 07:26:20;;;;;;;5.37;3.80;;;;;;;21.47;80.10;97615.80;1735392;82;21260;-62
2022/08/21 07:28:48;;;;;;;4.85;3.52;;;;;;;21.42;79.94;97602.49;1744139;81;20896;-63
2022/08/21 07:31:17;;;;;;;8.28;3.65;;;;;;;21.42;79.82;97605.22;1756698;81;21413;-61
2022/08/21 07:33:44;;;;;;;6.55;3.80;;;;;;;21.45;79.80;97611.30;1740585;81;20986;-62
2022/08/21 07:36:11;;;;;;;7.50;4.15;;;;;;;21.48;79.66;97613.27;1742857;81;21021;-62
2022/08/21 07:38:38;;;;;;;8.35;3.90;;;;;;;21.47;79.60;97607.63;1750550;81;21110;-63
2022/08/21 07:41:15;;;;;;;8.78;4.10;;;;;;;21.47;79.68;97608.98;1762447;81;20906;-62
2022/08/21 07:43:42;;;;;;;4.42;3.87;;;;;;;21.46;79.55;97600.59;1754411;80;20989;-62
2022/08/21 07:46:09;;;;;;;5.97;3.52;;;;;;;21.46;79.86;97606.61;1743181;81;20949;-62
2022/08/21 07:48:35;;;;;;;6.83;3.52;;;;;;;21.47;79.79;97592.64;1757842;81;20942;-62
2022/08/21 07:51:06;;;;;;;4.80;3.90;;;;;;;21.47;79.63;97597.30;1756864;81;21107;-62
2022/08/21 07:53:34;;;;;;;6.25;3.65;;;;;;;21.45;79.58;97596.31;1753201;80;20909;-63
2022/08/21 07:56:01;;;;;;;4.87;3.37;;;;;;;21.42;79.47;97595.69;1756659;81;21574;-62
2022/08/21 07:58:27;;;;;;;6.90;4.00;;;;;;;21.36;79.78;97595.02;1745111;81;20930;-62
2022/08/21 08:00:54;;;;;;;6.20;4.05;;;;;;;21.38;79.99;97593.50;1758133;81;20937;-62
2022/08/21 08:03:20;;;;;;;6.20;3.70;;;;;;;21.38;79.94;97596.22;1751618;81;22025;-63
2022/08/21 08:05:47;;;;;;;5.85;3.85;;;;;;;21.36;80.10;97597.14;1759467;81;20834;-62
2022/08/21 08:08:15;;;;;;;9.43;3.80;;;;;;;21.36;80.05;97599.87;1757738;81;21460;-62
2022/08/21 08:10:42;;;;;;;5.60;3.80;;;;;;;21.37;80.05;97600.66;1744719;80;21437;-62
2022/08/21 08:13:09;;;;;;;4.62;3.98;;;;;;;21.36;79.98;97595.02;1764692;81;20846;-62
2022/08/21 08:15:36;;;;;;;4.97;3.65;;;;;;;21.36;80.15;97591.70;1745129;81;21144;-62
2022/08/21 08:18:02;;;;;;;7.62;4.00;;;;;;;21.40;80.03;97587.10;1742031;81;20947;-62
2022/08/21 08:20:29;;;;;;;5.70;3.80;;;;;;;21.43;80.02;97582.25;1738226;81;21083;-61
2022/08/21 08:22:56;;;;;;;7.22;3.95;;;;;;;21.43;80.08;97586.94;1746642;80;20981;-62
2022/08/21 08:25:23;;;;;;;5.83;3.80;;;;;;;21.47;80.06;97583.10;1741520;81;21230;-62
2022/08/21 08:27:49;;;;;;;8.53;4.35;;;;;;;21.49;79.98;97578.63;1741342;81;21161;-62
2022/08/21 08:30:18;;;;;;;5.97;4.42;;;;;;;21.49;79.74;97584.87;1754682;81;21428;-62
2022/08/21 08:32:45;;;;;;;7.40;4.25;;;;;;;21.50;79.71;97579.64;1753148;81;20938;-63
2022/08/21 08:35:12;;;;;;;5.65;4.22;;;;;;;21.53;79.89;97576.16;1742652;81;20987;-62
2022/08/21 08:37:40;;;;;;;7.60;4.00;;;;;;;21.60;80.12;97575.45;1751122;81;20989;-62
2022/08/21 08:40:13;;;;;;;8.25;4.05;;;;;;;21.68;79.88;97580.62;1734968;82;21832;-62
2022/08/21 08:42:39;;;;;;;5.67;4.17;;;;;;;21.73;79.31;97578.94;1733871;82;20934;-62
2022/08/21 08:45:13;;;;;;;4.90;4.30;;;;;;;21.75;78.73;97574.47;1742853;81;20902;-62
2022/08/21 08:47:51;;;;;;;6.05;3.90;;;;;;;21.79;78.58;97575.28;1748242;81;20993;-61
2022/08/21 08:50:26;;;;;;;6.78;4.22;;;;;;;21.83;78.40;97574.16;1743523;80;20859;-62
2022/08/21 08:53:00;;;;;;;4.90;3.87;;;;;;;21.91;78.33;97570.17;1729326;80;21122;-61
2022/08/21 08:55:42;;;;;;;6.22;3.80;;;;;;;21.99;78.25;97569.10;1752890;81;20946;-61
2022/08/21 08:58:27;;;;;;;3.92;3.27;;;;;;;22.09;77.90;97571.16;1752909;80;20941;-62
2022/08/21 09:00:54;;;;;;;5.15;3.10;;;;;;;22.18;77.58;97571.63;1744861;80;21798;-61
2022/08/21 09:03:25;;;;;;;3.72;3.20;;;;;;;22.27;76.87;97572.89;1743893;80;21005;-61
2022/08/21 09:06:06;;;;;;;5.35;3.33;;;;;;;22.34;76.34;97568.07;1755180;81;21232;-62
2022/08/21 09:09:02;;;;;;;5.12;3.50;;;;;;;22.42;75.73;97575.17;1762254;79;20981;-61
2022/08/21 09:11:37;;;;;;;4.80;3.27;;;;;;;22.48;74.97;97571.70;1745152;81;20910;-62
2022/08/21 09:14:18;;;;;;;6.50;3.60;;;;;;;22.56;74.19;97571.77;1731997;80;21049;-61
2022/08/21 09:17:03;;;;;;;4.28;3.52;;;;;;;22.61;73.79;97574.17;1740945;80;21018;-62
2022/08/21 09:19:56;;;;;;;4.63;3.07;;;;;;;22.80;73.55;97569.84;1751762;80;21217;-62
2022/08/21 09:22:50;;;;;;;7.95;2.90;;;;;;;22.80;73.55;97569.84;1759115;79;21413;-61
2022/08/21 09:25:26;;;;;;;3.77;2.70;;;;;;;22.91;73.00;97563.28;1744913;81;20973;-62
2022/08/21 09:27:53;;;;;;;4.62;2.80;;;;;;;23.07;72.18;97569.22;1734714;81;21477;-60
2022/08/21 09:30:30;;;;;;;3.35;2.72;;;;;;;23.21;71.50;97563.05;1756411;81;20904;-62
2022/08/21 09:32:56;;;;;;;7.47;2.60;;;;;;;23.33;70.73;97563.30;1753850;81;21515;-62
2022/08/21 09:35:24;;;;;;;9.83;2.90;;;;;;;23.47;69.98;97560.66;1738531;81;21402;-59
2022/08/21 09:38:00;;;;;;;3.40;2.80;;;;;;;23.54;69.34;97564.78;1726909;81;20993;-63
2022/08/21 09:40:38;;;;;;;4.00;2.95;;;;;;;23.62;68.81;97562.28;1733946;82;21076;-62
2022/08/21 09:43:11;;;;;;;4.35;2.60;;;;;;;23.74;68.67;97560.57;1735502;82;21430;-61
2022/08/21 09:45:38;;;;;;;6.50;3.00;;;;;;;23.86;68.40;97564.29;1752848;79;21886;-62
2022/08/21 09:48:21;;;;;;;3.45;2.62;;;;;;;23.91;68.17;97563.91;1745278;81;21007;-61
2022/08/21 09:50:48;;;;;;;5.67;2.58;;;;;;;23.97;67.81;97561.02;1749340;80;21470;-60
2022/08/21 09:53:22;;;;;;;5.22;2.60;;;;;;;24.10;67.96;97560.07;1740893;81;21476;-62
2022/08/21 09:58:44;;;;;;;7.30;2.52;;;;;;;24.47;66.75;97553.67;1743407;81;21119;-60
2022/08/21 10:01:18;;;;;;;4.00;1.92;;;;;;;24.69;66.26;97557.16;1754052;79;21041;-61
2022/08/21 10:03:45;;;;;;;3.08;2.05;;;;;;;24.87;64.54;97553.25;1744934;81;21075;-61
2022/08/21 10:06:26;;;;;;;5.58;2.33;;;;;;;25.01;63.05;97553.83;1743619;81;21472;-61
2022/08/21 10:09:06;;;;;;;4.35;1.90;;;;;;;25.10;63.01;97552.25;1763527;81;20933;-61
2022/08/21 10:11:34;;;;;;;2.92;2.00;;;;;;;25.22;62.36;97551.03;1744365;81;21113;-62
2022/08/21 10:14:14;;;;;;;8.18;2.17;;;;;;;25.30;61.43;97545.70;1755162;81;20897;-61
2022/08/21 10:17:08;;;;;;;3.45;2.08;;;;;;;25.34;60.63;97547.08;1752727;79;21463;-61
2022/08/21 10:19:56;;;;;;;6.37;2.02;;;;;;;25.35;60.27;97539.81;1755879;80;20918;-60
2022/08/21 10:22:34;;;;;;;2.45;1.90;;;;;;;25.32;60.48;97555.67;1757425;79;21409;-60
2022/08/21 10:25:23;;;;;;;2.80;2.00;;;;;;;25.27;60.26;97554.74;1762331;81;21003;-61
2022/08/21 10:28:14;;;;;;;2.45;1.72;;;;;;;25.23;60.03;97558.06;1737673;81;20906;-62
2022/08/21 10:30:54;;;;;;;3.10;1.75;;;;;;;25.12;59.08;97550.47;1740192;80;20934;-62
2022/08/21 10:33:32;;;;;;;3.45;1.60;;;;;;;25.12;59.08;97550.47;1751581;79;21461;-62
2022/08/21 10:36:10;;;;;;;2.60;1.70;;;;;;;25.10;58.94;97555.56;1758237;81;21052;-62
2022/08/21 10:39:02;;;;;;;2.90;1.82;;;;;;;25.10;58.52;97550.88;1758707;81;21985;-61
2022/08/21 10:41:49;;;;;;;3.70;2.00;;;;;;;25.20;58.42;97547.91;1748473;80;20909;-62
2022/08/21 10:44:24;;;;;;;1.90;1.67;;;;;;;25.20;58.42;97547.91;1756985;81;20908;-61
2022/08/21 10:47:13;;;;;;;5.30;1.90;;;;;;;25.24;58.65;97537.71;1708066;81;21050;-63
2022/08/21 10:50:01;;;;;;;4.75;1.80;;;;;;;25.32;58.48;97541.97;1749117;81;20938;-62
2022/08/21 10:53:05;;;;;;;2.17;1.70;;;;;;;25.42;57.82;97537.05;1716698;79;21413;-62
2022/08/21 10:55:46;;;;;;;3.85;1.77;;;;;;;25.51;57.78;97538.80;1743440;80;21106;-63
2022/08/21 10:58:35;;;;;;;2.90;2.00;;;;;;;25.64;57.57;97536.39;1743362;81;21449;-61
2022/08/21 11:01:22;;;;;;;3.15;1.80;;;;;;;25.98;56.61;97535.98;1751548;81;21554;-62
2022/08/21 11:03:53;;;;;;;4.25;2.10;;;;;;;25.98;56.61;97535.98;1760929;81;20901;-62
2022/08/21 11:06:29;;;;;;;2.75;2.00;;;;;;;26.26;56.52;97533.69;1753899;81;21123;-62
2022/08/21 11:09:00;;;;;;;2.45;1.70;;;;;;;26.52;56.26;97527.57;1740729;81;20932;-63
2022/08/21 11:11:37;;;;;;;3.20;1.80;;;;;;;26.74;55.02;97530.31;1746092;80;20983;-61
2022/08/21 11:14:11;;;;;;;4.50;2.10;;;;;;;26.86;53.91;97529.05;1751908;80;20965;-62
2022/08/21 11:16:42;;;;;;;2.00;1.80;;;;;;;26.96;52.46;97530.34;1753753;80;21038;-62
2022/08/21 11:19:42;;;;;;;1.92;1.70;;;;;;;26.93;52.15;97520.16;1757117;79;21179;-63
2022/08/21 11:22:20;;;;;;;3.50;2.10;;;;;;;26.96;52.67;97522.09;1746558;81;20933;-61
2022/08/21 11:24:58;;;;;;;1.98;1.70;;;;;;;27.09;52.85;97514.87;1738739;81;20994;-61
2022/08/21 11:27:45;;;;;;;2.42;1.72;;;;;;;27.28;52.03;97519.56;1750789;81;20967;-61
2022/08/21 11:30:13;;;;;;;3.27;1.92;;;;;;;27.38;52.51;97514.56;1735691;80;21036;-61
2022/08/21 11:32:45;;;;;;;4.20;1.70;;;;;;;27.51;51.61;97510.09;1738079;81;21284;-61
2022/08/21 11:35:34;;;;;;;5.33;1.90;;;;;;;27.59;50.17;97510.16;1738884;81;20990;-60
2022/08/21 11:38:18;;;;;;;3.72;1.85;;;;;;;27.61;49.81;97511.31;1752171;81;21024;-60
2022/08/21 11:41:22;;;;;;;4.57;2.23;;;;;;;27.71;50.67;97505.48;1755679;81;21030;-63
2022/08/21 11:44:00;;;;;;;3.83;1.75;;;;;;;27.93;49.67;97510.88;1754200;81;21431;-62
2022/08/21 11:47:07;;;;;;;4.45;1.87;;;;;;;28.09;48.08;97506.14;1760629;79;21409;-62
2022/08/21 11:49:55;;;;;;;5.62;1.80;;;;;;;28.25;48.35;97505.68;1742022;80;20926;-61
2022/08/21 11:52:36;;;;;;;2.40;1.70;;;;;;;28.52;49.19;97511.74;1755014;79;21509;-61
2022/08/21 11:55:14;;;;;;;2.65;1.50;;;;;;;28.79;48.44;97511.08;1757265;79;21042;-62